AAL1990 SEQM-SEGU
Flight info
| Callsign | AAL1990 |
|---|---|
| Flight time | 0h 38m |
| Altitude | 26000 |
| Route | TEMOX3A TEMOX |
| Aircraft | B738/M-SDE2E3FGHIRWXY/LB1 |
Departure
| Time | 2026-04-17 22:08 |
|---|---|
| Airport | Mariscal Sucre International Airport (SEQM) |
Arrival
| Time | 2026-04-17 22:46 |
|---|---|
| Airport | José Joaquín de Olmedo International Airport (SEGU) |
| Time | Latitude | Longitude | Altitude | Speed | Heading |
|---|---|---|---|---|---|
| 2026-04-17 21:38 | -0.12326 | -78.35924 | 7841 ft | 0 kts | 267° |
| 2026-04-17 21:45 | -0.12326 | -78.35923 | 7841 ft | 0 kts | 267° |
| 2026-04-17 21:58 | -0.12326 | -78.35924 | 7841 ft | 0 kts | 268° |
| 2026-04-17 21:59 | -0.12326 | -78.35919 | 7841 ft | 2 kts | 263° |
| 2026-04-17 21:59 | -0.12322 | -78.35888 | 7836 ft | 9 kts | 263° |
| 2026-04-17 21:59 | -0.12317 | -78.35856 | 7834 ft | 2 kts | 236° |
| 2026-04-17 21:59 | -0.12301 | -78.35847 | 7833 ft | 6 kts | 180° |
| 2026-04-17 22:00 | -0.12295 | -78.35847 | 7841 ft | 0 kts | 167° |
| 2026-04-17 22:01 | -0.12296 | -78.35847 | 7841 ft | 1 kts | 167° |
| 2026-04-17 22:02 | -0.12320 | -78.35842 | 7838 ft | 6 kts | 169° |
| 2026-04-17 22:02 | -0.12360 | -78.35818 | 7838 ft | 9 kts | 115° |
| 2026-04-17 22:02 | -0.12362 | -78.35746 | 7841 ft | 12 kts | 88° |
| 2026-04-17 22:02 | -0.12358 | -78.35654 | 7843 ft | 13 kts | 92° |
| 2026-04-17 22:03 | -0.12425 | -78.35611 | 7839 ft | 13 kts | 178° |
| 2026-04-17 22:03 | -0.12521 | -78.35608 | 7850 ft | 14 kts | 178° |
| 2026-04-17 22:03 | -0.12619 | -78.35604 | 7856 ft | 14 kts | 178° |
| 2026-04-17 22:03 | -0.12718 | -78.35601 | 7861 ft | 14 kts | 178° |
| 2026-04-17 22:04 | -0.12820 | -78.35595 | 7866 ft | 16 kts | 176° |
| 2026-04-17 22:04 | -0.12937 | -78.35591 | 7869 ft | 18 kts | 176° |
| 2026-04-17 22:04 | -0.13063 | -78.35584 | 7875 ft | 18 kts | 179° |
| 2026-04-17 22:04 | -0.13192 | -78.35581 | 7881 ft | 19 kts | 177° |
| 2026-04-17 22:05 | -0.13341 | -78.35573 | 7884 ft | 23 kts | 177° |
| 2026-04-17 22:05 | -0.13515 | -78.35567 | 7887 ft | 25 kts | 178° |
| 2026-04-17 22:05 | -0.13677 | -78.35559 | 7894 ft | 22 kts | 177° |
| 2026-04-17 22:05 | -0.13839 | -78.35552 | 7897 ft | 23 kts | 178° |
| 2026-04-17 22:06 | -0.13966 | -78.35550 | 7900 ft | 16 kts | 178° |
| 2026-04-17 22:06 | -0.14082 | -78.35541 | 7914 ft | 17 kts | 177° |
| 2026-04-17 22:06 | -0.14197 | -78.35535 | 7912 ft | 16 kts | 169° |
| 2026-04-17 22:06 | -0.14248 | -78.35501 | 7921 ft | 9 kts | 121° |
| 2026-04-17 22:07 | -0.14253 | -78.35426 | 7913 ft | 14 kts | 81° |
| 2026-04-17 22:07 | -0.14165 | -78.35371 | 7911 ft | 21 kts | 0° |
| 2026-04-17 22:07 | -0.13955 | -78.35379 | 7901 ft | 45 kts | 357° |
| 2026-04-17 22:07 | -0.13386 | -78.35403 | 7887 ft | 117 kts | 358° |
| 2026-04-17 22:08 | -0.12351 | -78.35441 | 7920 ft | 174 kts | 358° |
| 2026-04-17 22:08 | -0.11090 | -78.35500 | 8547 ft | 189 kts | 356° |
| 2026-04-17 22:08 | -0.09755 | -78.35645 | 9360 ft | 199 kts | 341° |
| 2026-04-17 22:08 | -0.08479 | -78.36128 | 10366 ft | 192 kts | 339° |
| 2026-04-17 22:09 | -0.07161 | -78.36574 | 10789 ft | 212 kts | 339° |
| 2026-04-17 22:09 | -0.05687 | -78.37057 | 10984 ft | 235 kts | 340° |
| 2026-04-17 22:09 | -0.04050 | -78.37583 | 11125 ft | 258 kts | 340° |
| 2026-04-17 22:09 | -0.02313 | -78.38136 | 11422 ft | 271 kts | 341° |
| 2026-04-17 22:10 | -0.00477 | -78.38719 | 11694 ft | 288 kts | 341° |
| 2026-04-17 22:10 | 0.01537 | -78.39357 | 11806 ft | 316 kts | 340° |
| 2026-04-17 22:10 | 0.03723 | -78.40055 | 11966 ft | 342 kts | 341° |
| 2026-04-17 22:10 | 0.06035 | -78.40791 | 12465 ft | 355 kts | 341° |
| 2026-04-17 22:11 | 0.08371 | -78.41657 | 13061 ft | 362 kts | 329° |
| 2026-04-17 22:11 | 0.10275 | -78.43264 | 13849 ft | 359 kts | 307° |
| 2026-04-17 22:11 | 0.11530 | -78.45409 | 14492 ft | 359 kts | 291° |
| 2026-04-17 22:11 | 0.12409 | -78.47760 | 15095 ft | 364 kts | 289° |
| 2026-04-17 22:12 | 0.13274 | -78.50147 | 15733 ft | 367 kts | 289° |
| 2026-04-17 22:12 | 0.14153 | -78.52515 | 16376 ft | 370 kts | 289° |
| 2026-04-17 22:12 | 0.14970 | -78.54962 | 16955 ft | 373 kts | 279° |
| 2026-04-17 22:12 | 0.14940 | -78.57576 | 17558 ft | 375 kts | 257° |
| 2026-04-17 22:13 | 0.14023 | -78.59980 | 17932 ft | 378 kts | 240° |
| 2026-04-17 22:13 | 0.12369 | -78.62070 | 17933 ft | 393 kts | 223° |
| 2026-04-17 22:13 | 0.10917 | -78.63248 | 17957 ft | 402 kts | 218° |
| 2026-04-17 22:13 | 0.07867 | -78.65450 | 17942 ft | 412 kts | 216° |
| 2026-04-17 22:14 | 0.05511 | -78.67082 | 17937 ft | 411 kts | 216° |
| 2026-04-17 22:14 | 0.03922 | -78.68180 | 17930 ft | 411 kts | 216° |
| 2026-04-17 22:14 | 0.01573 | -78.69815 | 17874 ft | 411 kts | 216° |
| 2026-04-17 22:14 | -0.00734 | -78.71435 | 17915 ft | 411 kts | 216° |
| 2026-04-17 22:15 | -0.03068 | -78.73089 | 17907 ft | 412 kts | 216° |
| 2026-04-17 22:15 | -0.05410 | -78.74758 | 17913 ft | 412 kts | 216° |
| 2026-04-17 22:15 | -0.07747 | -78.76430 | 17911 ft | 413 kts | 217° |
| 2026-04-17 22:15 | -0.10085 | -78.78104 | 17908 ft | 413 kts | 216° |
| 2026-04-17 22:16 | -0.12417 | -78.79776 | 17899 ft | 412 kts | 216° |
| 2026-04-17 22:16 | -0.14749 | -78.81447 | 17924 ft | 412 kts | 217° |
| 2026-04-17 22:16 | -0.17080 | -78.83118 | 17915 ft | 412 kts | 216° |
| 2026-04-17 22:16 | -0.19410 | -78.84788 | 17860 ft | 412 kts | 216° |
| 2026-04-17 22:17 | -0.21743 | -78.86459 | 17869 ft | 412 kts | 216° |
| 2026-04-17 22:17 | -0.24039 | -78.88104 | 17856 ft | 412 kts | 217° |
| 2026-04-17 22:17 | -0.26380 | -78.89782 | 17860 ft | 412 kts | 217° |
| 2026-04-17 22:17 | -0.28708 | -78.91450 | 17860 ft | 411 kts | 217° |
| 2026-04-17 22:18 | -0.31034 | -78.93116 | 17898 ft | 411 kts | 217° |
| 2026-04-17 22:18 | -0.33359 | -78.94782 | 17896 ft | 411 kts | 217° |
| 2026-04-17 22:18 | -0.35686 | -78.96449 | 17900 ft | 412 kts | 217° |
| 2026-04-17 22:18 | -0.38010 | -78.98115 | 17908 ft | 412 kts | 216° |
| 2026-04-17 22:19 | -0.40340 | -78.99784 | 17832 ft | 412 kts | 216° |
| 2026-04-17 22:19 | -0.42671 | -79.01454 | 17834 ft | 412 kts | 217° |
| 2026-04-17 22:19 | -0.45000 | -79.03123 | 17865 ft | 412 kts | 216° |
| 2026-04-17 22:19 | -0.47328 | -79.04791 | 17854 ft | 412 kts | 216° |
| 2026-04-17 22:20 | -0.49656 | -79.06459 | 17862 ft | 412 kts | 216° |
| 2026-04-17 22:20 | -0.51991 | -79.08134 | 17862 ft | 413 kts | 216° |
| 2026-04-17 22:20 | -0.54326 | -79.09808 | 17864 ft | 414 kts | 216° |
| 2026-04-17 22:20 | -0.56665 | -79.11483 | 17859 ft | 414 kts | 216° |
| 2026-04-17 22:21 | -0.58999 | -79.13158 | 17791 ft | 414 kts | 217° |
| 2026-04-17 22:21 | -0.61299 | -79.14892 | 17804 ft | 413 kts | 218° |
| 2026-04-17 22:21 | -0.63567 | -79.16669 | 17806 ft | 413 kts | 219° |
| 2026-04-17 22:21 | -0.65814 | -79.18452 | 17819 ft | 413 kts | 219° |
| 2026-04-17 22:22 | -0.68062 | -79.20236 | 17807 ft | 413 kts | 219° |
| 2026-04-17 22:22 | -0.70286 | -79.21996 | 17811 ft | 413 kts | 219° |
| 2026-04-17 22:22 | -0.72545 | -79.23776 | 17818 ft | 413 kts | 219° |
| 2026-04-17 22:22 | -0.74801 | -79.25548 | 17815 ft | 413 kts | 219° |
| 2026-04-17 22:23 | -0.77060 | -79.27320 | 17811 ft | 413 kts | 219° |
| 2026-04-17 22:23 | -0.79321 | -79.29090 | 17745 ft | 413 kts | 219° |
| 2026-04-17 22:23 | -0.81580 | -79.30858 | 17751 ft | 413 kts | 219° |
| 2026-04-17 22:23 | -0.83841 | -79.32629 | 17744 ft | 413 kts | 218° |
| 2026-04-17 22:24 | -0.86103 | -79.34399 | 17754 ft | 413 kts | 219° |
| 2026-04-17 22:24 | -0.88370 | -79.36173 | 17746 ft | 413 kts | 219° |
| 2026-04-17 22:24 | -0.90633 | -79.37945 | 17749 ft | 414 kts | 219° |
| 2026-04-17 22:24 | -0.92896 | -79.39716 | 17753 ft | 414 kts | 219° |
| 2026-04-17 22:25 | -0.95161 | -79.41488 | 17742 ft | 413 kts | 219° |
| 2026-04-17 22:25 | -0.97428 | -79.43264 | 17688 ft | 414 kts | 218° |
| 2026-04-17 22:25 | -0.99699 | -79.45042 | 17680 ft | 414 kts | 218° |
| 2026-04-17 22:25 | -1.01968 | -79.46818 | 17677 ft | 415 kts | 218° |
| 2026-04-17 22:26 | -1.04238 | -79.48594 | 17685 ft | 415 kts | 218° |
| 2026-04-17 22:26 | -1.06512 | -79.50375 | 17682 ft | 415 kts | 218° |
| 2026-04-17 22:26 | -1.08786 | -79.52155 | 17682 ft | 415 kts | 218° |
| 2026-04-17 22:26 | -1.11059 | -79.53935 | 17674 ft | 415 kts | 218° |
| 2026-04-17 22:27 | -1.13331 | -79.55714 | 17680 ft | 415 kts | 218° |
| 2026-04-17 22:27 | -1.15608 | -79.57496 | 17632 ft | 415 kts | 218° |
| 2026-04-17 22:27 | -1.17881 | -79.59276 | 17633 ft | 415 kts | 218° |
| 2026-04-17 22:27 | -1.20128 | -79.61036 | 17641 ft | 415 kts | 218° |
| 2026-04-17 22:28 | -1.22403 | -79.62817 | 17632 ft | 415 kts | 218° |
| 2026-04-17 22:28 | -1.24679 | -79.64599 | 17627 ft | 415 kts | 218° |
| 2026-04-17 22:28 | -1.26956 | -79.66382 | 17623 ft | 415 kts | 218° |
| 2026-04-17 22:28 | -1.29229 | -79.68162 | 17626 ft | 415 kts | 218° |
| 2026-04-17 22:29 | -1.31503 | -79.69943 | 17629 ft | 415 kts | 218° |
| 2026-04-17 22:29 | -1.33778 | -79.71725 | 17629 ft | 415 kts | 218° |
| 2026-04-17 22:29 | -1.36041 | -79.73498 | 17589 ft | 409 kts | 218° |
| 2026-04-17 22:29 | -1.38232 | -79.75214 | 17568 ft | 393 kts | 218° |
| 2026-04-17 22:30 | -1.40360 | -79.76880 | 17295 ft | 383 kts | 218° |
| 2026-04-17 22:30 | -1.42435 | -79.78505 | 16995 ft | 376 kts | 218° |
| 2026-04-17 22:30 | -1.44489 | -79.80111 | 16496 ft | 373 kts | 217° |
| 2026-04-17 22:30 | -1.46637 | -79.81488 | 16019 ft | 370 kts | 208° |
| 2026-04-17 22:31 | -1.49039 | -79.82481 | 15491 ft | 369 kts | 198° |
| 2026-04-17 22:31 | -1.51484 | -79.83228 | 15000 ft | 366 kts | 197° |
| 2026-04-17 22:31 | -1.53893 | -79.83942 | 14511 ft | 365 kts | 197° |
| 2026-04-17 22:31 | -1.56324 | -79.84661 | 14011 ft | 363 kts | 197° |
| 2026-04-17 22:32 | -1.58741 | -79.85381 | 13514 ft | 361 kts | 197° |
| 2026-04-17 22:32 | -1.61145 | -79.86102 | 12981 ft | 359 kts | 197° |
| 2026-04-17 22:32 | -1.63524 | -79.86821 | 12483 ft | 356 kts | 198° |
| 2026-04-17 22:32 | -1.65884 | -79.87537 | 11975 ft | 353 kts | 198° |
| 2026-04-17 22:33 | -1.68227 | -79.88250 | 11499 ft | 351 kts | 197° |
| 2026-04-17 22:33 | -1.70557 | -79.88960 | 11031 ft | 348 kts | 198° |
| 2026-04-17 22:33 | -1.72863 | -79.89663 | 10656 ft | 343 kts | 197° |
| 2026-04-17 22:33 | -1.75118 | -79.90350 | 10489 ft | 332 kts | 197° |
| 2026-04-17 22:34 | -1.77289 | -79.91012 | 10342 ft | 321 kts | 197° |
| 2026-04-17 22:34 | -1.79400 | -79.91656 | 10204 ft | 311 kts | 197° |
| 2026-04-17 22:34 | -1.81440 | -79.92278 | 10066 ft | 302 kts | 197° |
| 2026-04-17 22:34 | -1.83418 | -79.92882 | 9938 ft | 293 kts | 197° |
| 2026-04-17 22:35 | -1.85346 | -79.93470 | 9811 ft | 285 kts | 197° |
| 2026-04-17 22:35 | -1.87238 | -79.94047 | 9506 ft | 284 kts | 197° |
| 2026-04-17 22:35 | -1.89123 | -79.94622 | 9215 ft | 282 kts | 198° |
| 2026-04-17 22:35 | -1.90994 | -79.95194 | 8918 ft | 281 kts | 197° |
| 2026-04-17 22:36 | -1.92857 | -79.95762 | 8624 ft | 279 kts | 198° |
| 2026-04-17 22:36 | -1.94688 | -79.96321 | 8337 ft | 278 kts | 198° |
| 2026-04-17 22:36 | -1.96534 | -79.96884 | 8037 ft | 276 kts | 198° |
| 2026-04-17 22:36 | -1.98368 | -79.97444 | 7750 ft | 275 kts | 198° |
| 2026-04-17 22:37 | -2.00198 | -79.98002 | 7454 ft | 274 kts | 198° |
| 2026-04-17 22:37 | -2.02024 | -79.98559 | 7170 ft | 274 kts | 197° |
| 2026-04-17 22:37 | -2.03842 | -79.99115 | 6874 ft | 273 kts | 197° |
| 2026-04-17 22:37 | -2.05658 | -79.99669 | 6592 ft | 272 kts | 198° |
| 2026-04-17 22:38 | -2.07466 | -80.00220 | 6303 ft | 271 kts | 197° |
| 2026-04-17 22:38 | -2.09273 | -80.00772 | 5973 ft | 272 kts | 198° |
| 2026-04-17 22:38 | -2.11077 | -80.01323 | 5649 ft | 271 kts | 198° |
| 2026-04-17 22:38 | -2.12879 | -80.01873 | 5351 ft | 270 kts | 197° |
| 2026-04-17 22:39 | -2.14662 | -80.02417 | 5052 ft | 264 kts | 198° |
| 2026-04-17 22:39 | -2.16395 | -80.02946 | 4772 ft | 256 kts | 198° |
| 2026-04-17 22:39 | -2.19585 | -80.03918 | 4504 ft | 221 kts | 197° |
| 2026-04-17 22:40 | -2.21002 | -80.04351 | 4372 ft | 205 kts | 198° |
| 2026-04-17 22:40 | -2.22361 | -80.04766 | 3956 ft | 208 kts | 198° |
| 2026-04-17 22:40 | -2.23735 | -80.05185 | 3660 ft | 206 kts | 198° |
| 2026-04-17 22:40 | -2.25084 | -80.05530 | 3522 ft | 197 kts | 184° |
| 2026-04-17 22:41 | -2.26354 | -80.05155 | 3428 ft | 193 kts | 144° |
| 2026-04-17 22:41 | -2.27290 | -80.04158 | 3439 ft | 202 kts | 123° |
| 2026-04-17 22:41 | -2.28015 | -80.02936 | 3448 ft | 206 kts | 121° |
| 2026-04-17 22:41 | -2.28727 | -80.01681 | 3390 ft | 208 kts | 121° |
| 2026-04-17 22:42 | -2.29449 | -80.00423 | 3318 ft | 208 kts | 121° |
| 2026-04-17 22:42 | -2.30163 | -79.99172 | 3213 ft | 205 kts | 117° |
| 2026-04-17 22:42 | -2.30432 | -79.97795 | 2991 ft | 204 kts | 78° |
| 2026-04-17 22:42 | -2.29784 | -79.96569 | 2827 ft | 204 kts | 42° |
| 2026-04-17 22:43 | -2.28633 | -79.95765 | 2651 ft | 206 kts | 27° |
| 2026-04-17 22:43 | -2.27379 | -79.95053 | 2432 ft | 207 kts | 29° |
| 2026-04-17 22:43 | -2.26129 | -79.94338 | 2171 ft | 205 kts | 30° |
| 2026-04-17 22:43 | -2.24896 | -79.93632 | 1900 ft | 203 kts | 28° |
| 2026-04-17 22:44 | -2.23690 | -79.92942 | 1736 ft | 194 kts | 28° |
| 2026-04-17 22:44 | -2.22521 | -79.92272 | 1379 ft | 195 kts | 29° |
| 2026-04-17 22:44 | -2.21390 | -79.91621 | 1141 ft | 180 kts | 28° |
| 2026-04-17 22:44 | -2.20322 | -79.91007 | 937 ft | 172 kts | 29° |
| 2026-04-17 22:45 | -2.19322 | -79.90428 | 711 ft | 158 kts | 31° |
| 2026-04-17 22:45 | -2.18421 | -79.89897 | 471 ft | 147 kts | 30° |
| 2026-04-17 22:45 | -2.17560 | -79.89413 | 240 ft | 140 kts | 31° |
| 2026-04-17 22:45 | -2.16717 | -79.88930 | 45 ft | 139 kts | 32° |
| 2026-04-17 22:46 | -2.15889 | -79.88450 | 27 ft | 133 kts | 31° |
| 2026-04-17 22:46 | -2.15266 | -79.88092 | 27 ft | 72 kts | 30° |
| 2026-04-17 22:46 | -2.14928 | -79.87893 | 28 ft | 49 kts | 30° |
| 2026-04-17 22:46 | -2.14692 | -79.87761 | 27 ft | 21 kts | 19° |
| 2026-04-17 22:47 | -2.14636 | -79.87832 | 27 ft | 13 kts | 269° |
| 2026-04-17 22:47 | -2.14661 | -79.87916 | 28 ft | 12 kts | 242° |
| 2026-04-17 22:47 | -2.14722 | -79.87969 | 28 ft | 11 kts | 209° |
| 2026-04-17 22:47 | -2.14793 | -79.88011 | 28 ft | 12 kts | 211° |
| 2026-04-17 22:48 | -2.14822 | -79.88029 | 28 ft | 0 kts | 216° |
| 2026-04-17 22:48 | -2.14822 | -79.88030 | 28 ft | 2 kts | 215° |
| 2026-04-17 22:48 | -2.14830 | -79.88037 | 28 ft | 2 kts | 226° |
| 2026-04-17 22:48 | -2.14837 | -79.88061 | 28 ft | 2 kts | 276° |
| 2026-04-17 22:49 | -2.14828 | -79.88086 | 28 ft | 9 kts | 293° |
| 2026-04-17 22:49 | -2.14795 | -79.88142 | 28 ft | 9 kts | 301° |
| 2026-04-17 22:49 | -2.14794 | -79.88198 | 28 ft | 8 kts | 231° |
| 2026-04-17 22:49 | -2.14800 | -79.88245 | 28 ft | 7 kts | 293° |
| 2026-04-17 22:50 | -2.14788 | -79.88268 | 28 ft | 0 kts | 300° |